Time;durP1;ratioP1;P1;durP2;ratioP2;P2;SDS_P1;SDS_P2;PMS_P1;PMS_P2;Temp;Humidity;BMP_temperature;BMP_pressure;BME280_temperature;BME280_humidity;BME280_pressure;Samples;Min_cycle;Max_cycle;Signal;HPM_P1;HPM_P2
2023/02/19 00:01:31;;;;;;;9.95;8.40;;;;;;;;;;5056123;28;20179;-77
2023/02/19 00:04:07;;;;;;;11.90;9.52;;;;;;;;;;5056087;28;20192;-78
2023/02/19 00:06:34;;;;;;;10.93;9.48;;;;;;;;;;5056306;28;20168;-77
2023/02/19 00:09:01;;;;;;;10.80;9.02;;;;;;;;;;5055818;28;20187;-77
2023/02/19 00:11:29;;;;;;;8.30;7.07;;;;;;;;;;5055730;28;20212;-77
2023/02/19 00:13:56;;;;;;;8.65;7.40;;;;;;;;;;5055629;28;20263;-78
2023/02/19 00:16:42;;;;;;;7.57;6.60;;;9.60;99.90;;;;;;5054677;28;20285;-77
2023/02/19 00:19:11;;;;;;;7.65;6.25;;;;;;;;;;5053904;28;20189;-78
2023/02/19 00:21:37;;;;;;;7.88;6.63;;;;;;;;;;5054704;28;20174;-78
2023/02/19 00:24:04;;;;;;;8.98;7.93;;;;;;;;;;5055386;28;20238;-78
2023/02/19 00:26:31;;;;;;;6.53;5.38;;;;;;;;;;5055387;28;20249;-78
2023/02/19 00:28:57;;;;;;;8.30;7.32;;;;;;;;;;5055107;28;20170;-78
2023/02/19 00:31:25;;;;;;;9.60;7.38;;;;;;;;;;5054531;28;20181;-78
2023/02/19 00:33:52;;;;;;;11.98;7.30;;;;;;;;;;5055330;28;20554;-82
2023/02/19 00:36:19;;;;;;;7.80;7.00;;;;;;;;;;5056177;28;20177;-78
2023/02/19 00:38:45;;;;;;;8.98;7.88;;;;;;;;;;5059202;28;20201;-79
2023/02/19 00:41:17;;;;;;;8.73;7.57;;;;;;;;;;5058833;28;20192;-78
2023/02/19 00:43:49;;;;;;;9.80;8.00;;;;;;;;;;5059487;28;20177;-78
2023/02/19 00:46:17;;;;;;;9.73;8.48;;;;;;;;;;5059019;28;20264;-77
2023/02/19 00:48:43;;;;;;;11.07;8.25;;;;;;;;;;5059918;28;20210;-78
2023/02/19 00:51:09;;;;;;;10.65;7.90;;;;;;;;;;5058767;28;20178;-78
2023/02/19 00:53:35;;;;;;;12.07;7.80;;;;;;;;;;5059113;28;20335;-78
2023/02/19 00:56:01;;;;;;;8.55;7.25;;;;;;;;;;5058811;28;20197;-78
2023/02/19 00:58:27;;;;;;;9.83;7.17;;;;;;;;;;5058836;28;20207;-78
2023/02/19 01:00:53;;;;;;;9.70;7.17;;;;;;;;;;5058402;28;20772;-79
2023/02/19 01:03:21;;;;;;;8.20;7.10;;;;;;;;;;5059261;28;20411;-78
2023/02/19 01:05:47;;;;;;;8.57;6.22;;;;;;;;;;5057961;28;20410;-78
2023/02/19 01:08:13;;;;;;;8.85;7.07;;;;;;;;;;5058290;28;20183;-79
2023/02/19 01:10:39;;;;;;;9.40;7.83;;;;;;;;;;5057880;28;20267;-79
2023/02/19 01:13:05;;;;;;;10.43;7.57;;;;;;;;;;5057247;28;20416;-79
2023/02/19 01:15:32;;;;;;;9.77;7.77;;;;;;;;;;5058110;28;20412;-78
2023/02/19 01:17:58;;;;;;;11.27;9.13;;;;;;;;;;5057356;28;20427;-78
2023/02/19 01:20:25;;;;;;;10.70;7.95;;;;;;;;;;5057253;28;20653;-78
2023/02/19 01:22:51;;;;;;;9.93;7.57;;;;;;;;;;5057031;28;20672;-78
2023/02/19 01:25:17;;;;;;;13.35;7.93;;;;;;;;;;5057884;28;20188;-78
2023/02/19 01:27:43;;;;;;;12.50;7.43;;;;;;;;;;5057860;28;20201;-78
2023/02/19 01:30:09;;;;;;;12.93;7.18;;;;;;;;;;5057391;28;20659;-78
2023/02/19 01:32:35;;;;;;;9.70;7.93;;;;;;;;;;5057974;28;20180;-78
2023/02/19 01:35:01;;;;;;;12.23;7.97;;;;;;;;;;5057610;28;20303;-78
2023/02/19 01:37:28;;;;;;;9.47;7.90;;;;;;;;;;5057874;28;20537;-79
2023/02/19 01:39:53;;;;;;;9.60;8.00;;;;;;;;;;5057909;28;20408;-78
2023/02/19 01:42:19;;;;;;;9.90;6.63;;;;;;;;;;5058295;28;20180;-78
2023/02/19 01:44:45;;;;;;;12.40;8.20;;;;;;;;;;5058269;28;20904;-79
2023/02/19 01:47:11;;;;;;;9.97;7.77;;;;;;;;;;5056023;28;20412;-78
2023/02/19 01:49:39;;;;;;;8.07;6.13;;;;;;;;;;5056440;28;20785;-79
2023/02/19 01:52:15;;;;;;;8.95;7.13;;;;;;;;;;5056956;28;20180;-78
2023/02/19 01:54:42;;;;;;;8.93;6.72;;;;;;;;;;5057655;28;20264;-78
2023/02/19 01:57:12;;;;;;;9.43;6.95;;;;;;;;;;5057605;28;20196;-78
2023/02/19 01:59:39;;;;;;;9.30;7.18;;;;;;;;;;5058405;28;20173;-79
2023/02/19 02:02:05;;;;;;;8.38;6.50;;;;;;;;;;5056024;28;20252;-79
2023/02/19 02:04:32;;;;;;;9.20;6.80;;;;;;;;;;5057603;28;20216;-78
2023/02/19 02:06:59;;;;;;;10.15;7.65;;;;;;;;;;5057305;28;20420;-79
2023/02/19 02:12:11;;;;;;;11.40;7.63;;;;;;;;;;5057038;28;20177;-78
2023/02/19 02:14:39;;;;;;;7.90;6.15;;;;;;;;;;5056879;28;20237;-79
2023/02/19 02:17:24;;;;;;;10.70;6.95;;;;;;;;;;5056446;28;20564;-79
2023/02/19 02:20:02;;;;;;;8.38;6.85;;;;;;;;;;5056829;28;20211;-80
2023/02/19 02:22:41;;;;;;;6.43;5.35;;;;;;;;;;5056729;28;20174;-79
2023/02/19 02:25:22;;;;;;;7.50;5.90;;;;;;;;;;5056606;28;20541;-79
2023/02/19 02:28:21;;;;;;;8.13;5.82;;;;;;;;;;5055888;28;20178;-78
2023/02/19 02:30:47;;;;;;;8.15;6.25;;;;;;;;;;5034081;28;20211;-78
2023/02/19 02:33:32;;;;;;;9.67;6.03;;;;;;;;;;5056114;28;20174;-78
2023/02/19 02:35:58;;;;;;;6.28;5.20;;;;;;;;;;5056490;28;20408;-81
2023/02/19 02:38:27;;;;;;;13.20;7.43;;;;;;;;;;5057430;28;20223;-79
2023/02/19 02:40:53;;;;;;;7.13;5.45;;;;;;;;;;5056728;28;20455;-79
2023/02/19 02:43:19;;;;;;;9.27;6.45;;;;;;;;;;5056633;28;20184;-78
2023/02/19 02:45:45;;;;;;;7.87;6.13;;;;;;;;;;5057370;28;20174;-78
2023/02/19 02:48:16;;;;;;;7.35;5.82;;;;;;;;;;5055716;28;20408;-78
2023/02/19 02:50:46;;;;;;;8.32;6.70;;;;;;;;;;5055795;28;20173;-78
2023/02/19 02:56:00;;;;;;;7.65;6.07;;;;;;;;;;5056566;28;20548;-81
2023/02/19 02:58:26;;;;;;;8.48;7.22;;;;;;;;;;5056404;28;20173;-79
2023/02/19 03:03:41;;;;;;;9.52;6.75;;;;;;;;;;5056577;28;20679;-79
2023/02/19 03:06:08;;;;;;;13.45;7.70;;;;;;;;;;5055870;28;20177;-79
2023/02/19 03:08:45;;;;;;;8.88;6.45;;;;;;;;;;5056113;28;20537;-79
2023/02/19 03:19:34;;;;;;;14.10;8.63;;;;;;;;;;5056245;28;20192;-79
2023/02/19 03:22:08;;;;;;;11.40;8.63;;;;;;;;;;5056041;28;20583;-79
2023/02/19 03:27:21;;;;;;;15.07;10.23;;;;;;;;;;5055475;28;20199;-79
2023/02/19 03:29:48;;;;;;;21.50;12.23;;;;;;;;;;5055801;28;20585;-78
2023/02/19 03:32:18;;;;;;;22.23;10.30;;;;;;;;;;5054661;28;20181;-79
2023/02/19 03:34:47;;;;;;;19.65;11.38;;;;;;;;;;5055822;28;20561;-78
2023/02/19 03:37:20;;;;;;;17.85;10.57;;;;;;;;;;5055507;28;20547;-78
2023/02/19 03:39:46;;;;;;;19.85;11.77;;;;;;;;;;5054539;28;20178;-78
2023/02/19 03:42:18;;;;;;;22.90;11.15;;;;;;;;;;5054805;28;20177;-78
2023/02/19 03:44:50;;;;;;;17.73;11.30;;;;;;;;;;5055925;28;20193;-78
2023/02/19 03:47:24;;;;;;;18.50;10.80;;;;;;;;;;5055066;28;20540;-79
2023/02/19 03:50:03;;;;;;;23.30;9.85;;;;;;;;;;5056599;28;20172;-79
2023/02/19 03:52:39;;;;;;;17.52;10.15;;;;;;;;;;5054610;28;20206;-79
2023/02/19 03:55:17;;;;;;;17.58;10.30;;;;;;;;;;5055676;28;20213;-79
2023/02/19 03:57:53;;;;;;;19.77;11.52;;;;;;;;;;5055838;28;20178;-79
2023/02/19 04:00:26;;;;;;;20.88;11.55;;;;;;;;;;5055927;28;20881;-78
2023/02/19 04:03:14;;;;;;;19.88;10.23;;;;;;;;;;5056662;28;20180;-78
2023/02/19 04:05:44;;;;;;;19.15;10.50;;;;;;;;;;5056648;28;20787;-79
2023/02/19 04:08:18;;;;;;;17.25;10.95;;;;;;;;;;5056024;28;20188;-79
2023/02/19 04:10:45;;;;;;;17.50;10.95;;;;;;;;;;5056263;28;20263;-79
2023/02/19 04:13:22;;;;;;;19.23;12.23;;;;;;;;;;5059137;28;20227;-79
2023/02/19 04:15:49;;;;;;;21.63;10.93;;;;;;;;;;5058023;28;20181;-79
2023/02/19 04:18:22;;;;;;;18.00;11.05;;;;;;;;;;5058836;28;20185;-79
2023/02/19 04:20:48;;;;;;;15.40;9.60;;;;;;;;;;5059165;28;20173;-79
2023/02/19 04:23:16;;;;;;;19.10;11.35;;;;;;;;;;5057546;28;20636;-79
2023/02/19 04:25:43;;;;;;;19.75;11.57;;;;;;;;;;5058599;28;20656;-79
2023/02/19 04:28:09;;;;;;;18.98;9.90;;;;;;;;;;5058751;28;20181;-78
2023/02/19 04:30:35;;;;;;;19.50;9.90;;;;;;;;;;5059056;28;20177;-79
2023/02/19 04:33:01;;;;;;;20.10;10.23;;;;;;;;;;5059387;28;20436;-78
2023/02/19 04:35:27;;;;;;;18.37;11.77;;;;;;;;;;5058640;28;20478;-79
2023/02/19 04:37:53;;;;;;;17.97;10.90;;;;;;;;;;5058415;28;20411;-78
2023/02/19 04:40:19;;;;;;;15.97;9.70;;;;;;;;;;5058925;28;20408;-79
2023/02/19 04:42:45;;;;;;;24.00;13.27;;;;;;;;;;5059572;28;20416;-80
2023/02/19 04:45:11;;;;;;;17.50;11.50;;;;;;;;;;5059664;28;20506;-79
2023/02/19 04:47:37;;;;;;;22.23;12.10;;;;;;;;;;5059143;28;20435;-78
2023/02/19 04:50:03;;;;;;;18.00;10.77;;;;;;;;;;5058881;28;20454;-77
2023/02/19 04:52:29;;;;;;;27.27;12.50;;;;;;;;;;5060399;28;20204;-78
2023/02/19 04:54:55;;;;;;;16.92;12.05;;;;;;;;;;5057934;28;20249;-78
2023/02/19 04:57:21;;;;;;;19.92;11.80;;;;;;;;;;5059273;28;20181;-78
2023/02/19 04:59:47;;;;;;;21.42;11.50;;;;;;;;;;5041459;28;20181;-78
2023/02/19 05:02:13;;;;;;;21.63;10.87;;;;;;;;;;5056803;28;20239;-78
2023/02/19 05:04:39;;;;;;;17.47;8.80;;;;;;;;;;5058335;28;20499;-78
2023/02/19 05:07:05;;;;;;;31.05;13.80;;;;;;;;;;5058439;28;20499;-78
2023/02/19 05:09:31;;;;;;;17.60;11.98;;;;;;;;;;5056916;28;20596;-78
2023/02/19 05:11:57;;;;;;;23.63;12.15;;;;;;;;;;5057425;28;20204;-78
2023/02/19 05:14:23;;;;;;;17.17;12.25;;;;;;;;;;5057698;28;20268;-78
2023/02/19 05:16:49;;;;;;;23.35;12.10;;;;;;;;;;5058164;28;20184;-78
2023/02/19 05:19:15;;;;;;;20.05;12.13;;;;;;;;;;5058447;28;20173;-78
2023/02/19 05:21:41;;;;;;;25.52;13.57;;;;;;;;;;5058508;28;20644;-79
2023/02/19 05:24:07;;;;;;;23.15;11.75;;;;;;;;;;5039622;28;20215;-78
2023/02/19 05:26:33;;;;;;;26.15;14.13;;;;;;;;;;5058151;28;20182;-78
2023/02/19 05:28:59;;;;;;;24.33;14.75;;;;;;;;;;5058306;28;20173;-78
2023/02/19 05:31:25;;;;;;;24.25;13.20;;;;;;;;;;5058015;28;20211;-78
2023/02/19 05:33:51;;;;;;;23.23;14.38;;;;;;;;;;5057944;28;20549;-78
2023/02/19 05:36:19;;;;;;;22.65;13.00;;;;;;;;;;5058383;28;20173;-78
2023/02/19 05:38:46;;;;;;;21.30;12.10;;;;;;;;;;5057612;28;20181;-77
2023/02/19 05:41:19;;;;;;;21.13;15.05;;;;;;;;;;5057522;28;20173;-78
2023/02/19 05:43:47;;;;;;;30.92;13.13;;;;;;;;;;5058269;28;20235;-77
2023/02/19 05:46:14;;;;;;;24.65;14.80;;;;;;;;;;5057701;28;20695;-78
2023/02/19 05:48:41;;;;;;;22.60;13.85;;;;;;;;;;5058552;28;20174;-78
2023/02/19 05:51:11;;;;;;;28.10;14.32;;;;;;;;;;5057742;28;20173;-77
2023/02/19 05:53:37;;;;;;;16.65;12.50;;;;;;;;;;5057853;28;20209;-77
2023/02/19 05:56:04;;;;;;;20.67;12.50;;;;;;;;;;5057754;28;20173;-77
2023/02/19 05:58:31;;;;;;;22.17;14.38;;;;;;;;;;5056580;28;21031;-79
2023/02/19 06:00:57;;;;;;;23.40;14.82;;;;;;;;;;5056732;28;20212;-78
2023/02/19 06:03:23;;;;;;;19.90;13.63;;;;;;;;;;5056173;28;20182;-78
2023/02/19 06:05:49;;;;;;;18.10;12.82;;;;;;;;;;5057280;28;20912;-78
2023/02/19 06:08:15;;;;;;;20.85;12.77;;;;;;;;;;5057429;28;20181;-78
2023/02/19 06:10:42;;;;;;;20.75;13.70;;;;;;;;;;5057498;28;20180;-78
2023/02/19 06:13:08;;;;;;;22.65;13.90;;;;;;;;;;5057551;28;20242;-78
2023/02/19 06:15:35;;;;;;;29.17;14.98;;;;;;;;;;5055191;28;20212;-78
2023/02/19 06:18:01;;;;;;;24.65;13.88;;;;;;;;;;5057462;28;20173;-78
2023/02/19 06:20:27;;;;;;;15.93;11.27;;;;;;;;;;5056454;28;20177;-79
2023/02/19 06:22:54;;;;;;;24.58;14.00;;;;;;;;;;5057362;28;20257;-78
2023/02/19 06:25:20;;;;;;;22.90;13.25;;;;;;;;;;5055084;28;20272;-78
2023/02/19 06:27:46;;;;;;;29.27;15.10;;;;;;;;;;5055852;28;20531;-79
2023/02/19 06:30:12;;;;;;;20.63;13.83;;;;;;;;;;5055515;28;20197;-81
2023/02/19 06:32:38;;;;;;;23.88;13.73;;;;;;;;;;5055757;28;20408;-78
2023/02/19 06:35:04;;;;;;;22.33;12.30;;;;;;;;;;5056538;28;20224;-78
2023/02/19 06:37:30;;;;;;;20.67;12.63;;;;;;;;;;5057188;28;20231;-79
2023/02/19 06:39:56;;;;;;;22.63;12.45;;;;;;;;;;5055589;28;20207;-78
2023/02/19 06:42:22;;;;;;;25.47;13.13;;;;;;;;;;5056143;28;20548;-78
2023/02/19 06:44:48;;;;;;;23.37;13.67;;;;;;;;;;5056861;28;20435;-78
2023/02/19 06:47:14;;;;;;;17.93;12.30;;;;;;;;;;5057000;28;20414;-79
2023/02/19 06:49:40;;;;;;;25.40;9.40;;;;;;;;;;5056700;28;20420;-78
2023/02/19 06:52:06;;;;;;;24.07;12.07;;;;;;;;;;5056875;28;20414;-78
2023/02/19 06:54:32;;;;;;;25.23;12.02;;;;;;;;;;5055766;28;20589;-78
2023/02/19 06:56:59;;;;;;;16.35;10.73;;;;;;;;;;5055651;28;20288;-78
2023/02/19 06:59:25;;;;;;;18.30;11.88;;;;;;;;;;5056229;28;20178;-78
2023/02/19 07:01:51;;;;;;;18.10;10.43;;;;;;;;;;5055280;28;20191;-78
2023/02/19 07:04:17;;;;;;;20.05;11.30;;;;;;;;;;5056368;28;20469;-78
2023/02/19 07:06:43;;;;;;;25.58;11.82;;;;;;;;;;5056520;28;20162;-78
2023/02/19 07:09:09;;;;;;;25.40;13.43;;;;;;;;;;5055772;28;20317;-77
2023/02/19 07:11:37;;;;;;;18.17;11.55;;;;;;;;;;5056363;28;20169;-78
2023/02/19 07:14:04;;;;;;;25.73;11.50;;;;;;;;;;5056719;28;20225;-78
2023/02/19 07:16:30;;;;;;;24.38;11.85;;;;;;;;;;5056275;28;20173;-78
2023/02/19 07:18:57;;;;;;;16.25;12.13;;;;;;;;;;5056428;28;20180;-78
2023/02/19 07:21:23;;;;;;;19.30;11.30;;;;;;;;;;5056300;28;20193;-78
2023/02/19 07:23:49;;;;;;;16.42;11.02;;;;;;;;;;5055088;28;20181;-78
2023/02/19 07:26:16;;;;;;;18.57;11.30;;;;;;;;;;5054793;28;20303;-81
2023/02/19 07:28:43;;;;;;;22.98;12.00;;;;;;;;;;5056802;28;20400;-78
2023/02/19 07:31:09;;;;;;;25.23;11.70;;;;;;;;;;5056505;28;20260;-78
2023/02/19 07:33:35;;;;;;;24.73;12.70;;;;;;;;;;5054634;28;20675;-78
2023/02/19 07:36:01;;;;;;;24.80;12.37;;;;;;;;;;5056915;28;20265;-78
2023/02/19 07:38:27;;;;;;;20.10;11.10;;;;;;;;;;5054413;28;20754;-77
2023/02/19 07:40:54;;;;;;;20.40;12.30;;;;;;;;;;5056309;28;20924;-78
2023/02/19 07:43:20;;;;;;;19.33;10.88;;;;;;;;;;5055300;28;20538;-78
2023/02/19 07:45:46;;;;;;;22.67;11.23;;;;;;;;;;5056512;28;20181;-78
2023/02/19 07:48:12;;;;;;;21.58;10.80;;;;;;;;;;5060263;28;20205;-78
2023/02/19 07:50:38;;;;;;;21.90;11.85;;;;;;;;;;5060065;28;20176;-78
2023/02/19 07:53:04;;;;;;;19.50;11.60;;;;;;;;;;5058690;28;20586;-78
2023/02/19 07:55:33;;;;;;;21.70;11.07;;;;;;;;;;5059655;28;20463;-78
2023/02/19 07:58:00;;;;;;;25.42;12.07;;;;;;;;;;5060232;28;20178;-78
2023/02/19 08:00:27;;;;;;;20.88;9.85;;;;;;;;;;5060020;28;20177;-78
2023/02/19 08:02:59;;;;;;;26.50;11.68;;;;;;;;;;5059966;28;20173;-78
2023/02/19 08:05:29;;;;;;;32.28;11.93;;;;;;;;;;5058843;28;20570;-78
2023/02/19 08:07:55;;;;;;;14.95;9.88;;;;;;;;;;5059783;28;20177;-78
2023/02/19 08:13:18;;;;;;;17.15;9.00;;;;;;;;;;5060150;28;20193;-77
2023/02/19 08:15:44;;;;;;;19.35;8.98;;;;;;;;;;5060479;28;20189;-78
2023/02/19 08:18:10;;;;;;;19.40;9.43;;;;;;;;;;5057850;28;20178;-78
2023/02/19 08:20:36;;;;;;;14.32;9.30;;;;;;;;;;5059429;28;20184;-78
2023/02/19 08:23:02;;;;;;;25.65;9.02;;;;;;;;;;5059803;28;20182;-78
2023/02/19 08:25:28;;;;;;;20.53;10.40;;;;;;;;;;5059236;28;20231;-78
2023/02/19 08:27:54;;;;;;;19.23;10.43;;;;;;;;;;5059345;28;20436;-79
2023/02/19 08:30:21;;;;;;;19.25;9.48;;;;;;;;;;5058260;28;20181;-79
2023/02/19 08:32:46;;;;;;;24.60;10.50;;;;;;;;;;5057978;28;20589;-78
2023/02/19 08:35:12;;;;;;;25.70;11.63;;;;;;;;;;5041473;28;20217;-78
2023/02/19 08:37:38;;;;;;;27.13;9.17;;;;;;;;;;5057625;28;20884;-78
2023/02/19 08:40:05;;;;;;;20.60;9.57;;;;;;;;;;5058618;28;20904;-78
2023/02/19 08:42:31;;;;;;;22.48;9.23;;;;;;;;;;5058458;28;20227;-78
2023/02/19 08:44:57;;;;;;;11.00;7.30;;;;;;;;;;5059030;28;20185;-78
2023/02/19 08:47:23;;;;;;;20.37;8.30;;;;;;;;;;5059160;28;20799;-79
2023/02/19 08:49:49;;;;;;;18.13;10.07;;;;;;;;;;5059891;28;20403;-78
2023/02/19 08:52:15;;;;;;;25.35;9.65;;;;;;;;;;5058109;28;20242;-78
2023/02/19 08:54:41;;;;;;;28.70;8.73;;;;;;;;;;5040819;28;20217;-78
2023/02/19 08:57:07;;;;;;;13.03;8.63;;;;;;;;;;5058393;28;20181;-78
2023/02/19 08:59:33;;;;;;;17.93;6.67;;;;;;;;;;5057904;28;20404;-78
2023/02/19 09:01:59;;;;;;;10.77;7.05;;;;;;;;;;5057775;28;20396;-78
2023/02/19 09:04:25;;;;;;;16.37;6.40;;;;;;;;;;5058406;28;20173;-78
2023/02/19 09:06:51;;;;;;;13.85;6.13;;;;;;;;;;5058895;28;20397;-78
2023/02/19 09:09:17;;;;;;;15.33;6.60;;;;;;;;;;5058683;28;20223;-78
2023/02/19 09:11:43;;;;;;;22.63;6.88;;;;;;;;;;5057935;28;20401;-78
2023/02/19 09:14:09;;;;;;;15.00;6.20;;;;;;;;;;5058235;28;20240;-78
2023/02/19 09:16:35;;;;;;;18.27;7.22;;;;;;;;;;5059239;28;20730;-78
2023/02/19 09:19:01;;;;;;;12.32;6.13;;;;;;;;;;5058229;28;20226;-78
2023/02/19 09:21:27;;;;;;;14.33;5.97;;;;;;;;;;5056049;28;20643;-84
2023/02/19 09:23:53;;;;;;;13.02;6.15;;;;;;;;;;5058621;28;20416;-84
2023/02/19 09:26:19;;;;;;;16.17;6.80;;;;;;;;;;5057540;28;20177;-79
2023/02/19 09:28:45;;;;;;;13.73;6.75;;;;;;;;;;5058374;28;20508;-79
2023/02/19 09:31:12;;;;;;;12.77;7.20;;;;;;;;;;5057990;28;20193;-79
2023/02/19 09:33:42;;;;;;;12.23;5.80;;;;;;;;;;5057599;28;20392;-78
2023/02/19 09:36:08;;;;;;;10.98;6.15;;;;;;;;;;5056661;28;20173;-79
2023/02/19 09:38:34;;;;;;;10.93;5.20;;;;;;;;;;5057482;28;20261;-79
2023/02/19 09:41:06;;;;;;;16.27;8.10;;;;;;;;;;5057956;28;20205;-79
2023/02/19 09:43:32;;;;;;;14.23;7.30;;;;;;;;;;5057213;28;20518;-79
2023/02/19 09:46:03;;;;;;;10.27;7.05;;;;;;;;;;5056091;28;20197;-79
2023/02/19 09:48:30;;;;;;;15.05;6.97;;;;;;;;;;5057150;28;20177;-79
2023/02/19 09:50:56;;;;;;;24.10;8.30;;;;;;;;;;5056541;28;20177;-78
2023/02/19 09:53:24;;;;;;;18.27;7.25;;;;;;;;;;5056043;28;20174;-79
2023/02/19 09:55:51;;;;;;;18.80;7.32;;;;;;;;;;5057434;28;20181;-79
2023/02/19 09:58:30;;;;;;;7.70;4.60;;;;;;;;;;5057062;28;20174;-80
2023/02/19 10:00:57;;;;;;;19.08;7.68;;;;;;;;;;5057853;28;20177;-79
2023/02/19 10:03:29;;;;;;;14.45;7.25;;;;;;;;;;5056218;28;20264;-80
2023/02/19 10:05:56;;;;;;;13.32;6.57;;;;;;;;;;5047789;28;20174;-79
2023/02/19 10:08:21;;;;;;;18.83;7.55;;;;;;;;;;5045870;28;20181;-78
2023/02/19 10:10:48;;;;;;;13.00;7.63;;;;;;;;;;5040250;28;20216;-78
2023/02/19 10:13:27;;;;;;;19.20;7.97;;;;;;;;;;5036856;28;20182;-79
2023/02/19 10:15:57;;;;;;;15.48;8.38;;;;;;;;;;5037143;28;20248;-78
2023/02/19 10:18:27;;;;;;;15.02;7.20;;;;;;;;;;5036641;28;20224;-80
2023/02/19 10:20:53;;;;;;;18.50;9.48;;;;;;;;;;5036694;28;20166;-78
2023/02/19 10:23:19;;;;;;;16.20;7.30;;;;;;;;;;5036383;28;20607;-78
2023/02/19 10:25:49;;;;;;;17.30;7.05;;;;;;;;;;5034861;28;20182;-79
2023/02/19 10:28:18;;;;;;;9.57;6.55;;;;;;;;;;5036483;28;20163;-79
2023/02/19 10:30:44;;;;;;;12.43;6.85;;;;;;;;;;5035743;28;20167;-79
2023/02/19 10:33:12;;;;;;;16.17;7.18;;;;;;;;;;5034407;28;20236;-79
2023/02/19 10:35:51;;;;;;;10.05;6.90;;;;;;;;;;5035860;28;20210;-79
2023/02/19 10:38:18;;;;;;;16.88;8.25;;;;;;;;;;5036168;28;20165;-79
2023/02/19 10:40:45;;;;;;;12.27;7.57;;;;;;;;;;5035560;28;20178;-79
2023/02/19 10:43:21;;;;;;;10.85;7.30;;;;;;;;;;5035786;28;20269;-79
2023/02/19 10:45:48;;;;;;;9.05;6.95;;;;;;;;;;5034617;28;20217;-79
2023/02/19 10:48:24;;;;;;;15.27;8.40;;;;;;;;;;5036556;28;20198;-79
2023/02/19 10:50:57;;;;;;;13.65;8.18;;;;;;;;;;5034415;28;20180;-79
2023/02/19 10:53:24;;;;;;;15.30;8.75;;;;;;;;;;5033953;28;20170;-79
2023/02/19 10:56:06;;;;;;;14.85;8.15;;;;;;;;;;5035306;28;20178;-79
2023/02/19 10:58:36;;;;;;;8.57;5.13;;;;;;;;;;5044958;28;20180;-79
2023/02/19 11:01:13;;;;;;;8.93;4.82;;;;;;;;;;5033548;28;20178;-79
2023/02/19 11:03:39;;;;;;;12.13;6.10;;;;;;;;;;5035005;28;20170;-79
2023/02/19 11:06:09;;;;;;;10.70;5.18;;;;;;;;;;5035933;28;20246;-79
2023/02/19 11:08:38;;;;;;;9.55;5.10;;;;;;;;;;5036344;28;20261;-79
2023/02/19 11:11:05;;;;;;;9.65;5.40;;;;;;;;;;5035313;28;20200;-79
2023/02/19 11:13:36;;;;;;;10.48;5.90;;;;;;;;;;5038469;28;20224;-80
2023/02/19 11:16:03;;;;;;;12.23;5.95;;;;;;;;;;5045695;28;20603;-79
2023/02/19 11:18:35;;;;;;;11.50;5.28;;;;;;;;;;5033883;28;20216;-83
2023/02/19 11:21:02;;;;;;;6.25;4.25;;;;;;;;;;5033641;28;20205;-80
2023/02/19 11:23:30;;;;;;;15.55;4.85;;;;;;;;;;5034473;28;20166;-79
2023/02/19 11:25:57;;;;;;;8.35;4.55;;;;;;;;;;5035036;28;20166;-80
2023/02/19 11:28:26;;;;;;;9.23;4.97;;;;;;;;;;5035237;28;20170;-80
2023/02/19 11:30:52;;;;;;;14.60;5.15;;;;;;;;;;5034855;28;20178;-80
2023/02/19 11:33:18;;;;;;;9.27;4.75;;;;;;;;;;5034501;28;20185;-81
2023/02/19 11:35:45;;;;;;;15.27;6.47;;;;;;;;;;5034348;28;20225;-81
2023/02/19 11:38:12;;;;;;;11.20;5.13;;;;;;;;;;5033878;28;20186;-78
2023/02/19 11:40:40;;;;;;;9.30;5.93;;;;;;;;;;5034718;28;20174;-81
2023/02/19 11:43:15;;;;;;;7.90;5.35;;;;;;;;;;5035043;28;20182;-81
2023/02/19 11:45:48;;;;;;;11.95;6.70;;;;;;;;;;5035001;28;20665;-81
2023/02/19 11:48:18;;;;;;;9.27;5.53;;;;;;;;;;5033861;28;20177;-81
2023/02/19 11:51:03;;;;;;;7.72;5.32;;;;;;;;;;5033452;28;20257;-81
2023/02/19 11:53:32;;;;;;;7.30;4.30;;;;;;;;;;5034991;28;20527;-81
2023/02/19 11:55:58;;;;;;;7.18;5.07;;;;;;;;;;5034178;28;20186;-81
2023/02/19 11:58:43;;;;;;;9.40;4.73;;;;;;;;;;5035112;28;20181;-81
2023/02/19 12:01:09;;;;;;;8.43;5.57;;;;;;;;;;5037322;28;20420;-81
2023/02/19 12:03:53;;;;;;;12.83;5.33;;;;;;;;;;5034177;28;20182;-82
2023/02/19 12:06:30;;;;;;;7.85;5.95;;;;;;;;;;5034577;28;20480;-81
2023/02/19 12:09:03;;;;;;;8.18;5.47;;;;;;;;;;5032684;28;20198;-81
2023/02/19 12:11:29;;;;;;;8.95;5.82;;;;;;;;;;5034338;28;20177;-80
2023/02/19 12:13:55;;;;;;;8.48;5.88;;;;;;;;;;5033779;28;20238;-81
2023/02/19 12:16:24;;;;;;;9.32;6.60;;;;;;;;;;5034232;28;20194;-81
2023/02/19 12:19:11;;;;;;;13.75;6.28;;;;;;;;;;5034585;28;20178;-81
2023/02/19 12:21:46;;;;;;;11.43;7.72;;;;;;;;;;5032601;28;20265;-80
2023/02/19 12:24:15;;;;;;;16.27;7.10;;;;;;;;;;5034026;28;20499;-81
2023/02/19 12:26:50;;;;;;;10.02;6.28;;;;;;;;;;5033976;28;20265;-81
2023/02/19 12:29:24;;;;;;;8.80;5.03;;;;;;;;;;5034082;28;20661;-81
2023/02/19 12:31:50;;;;;;;8.05;6.57;;;;;;;;;;5032741;28;20280;-81
2023/02/19 12:34:30;;;;;;;8.57;6.63;;;;;;;;;;5037891;28;20297;-81
2023/02/19 12:37:08;;;;;;;12.68;7.65;;;;;;;;;;5036689;28;20540;-81
2023/02/19 12:39:40;;;;;;;7.20;5.50;;;;;;;;;;5037578;28;20235;-86
2023/02/19 12:42:06;;;;;;;7.22;5.45;;;;;;;;;;5037916;28;20174;-81
2023/02/19 12:44:35;;;;;;;6.93;5.40;;;;;;;;;;5037694;28;20197;-81
2023/02/19 12:47:03;;;;;;;8.68;5.30;;;;;;;;;;5036150;28;20429;-81
2023/02/19 12:49:34;;;;;;;6.60;4.90;;;;;;;;;;5037643;28;20257;-81
2023/02/19 12:52:09;;;;;;;10.27;5.30;;;;;;;;;;5037804;28;20170;-81
2023/02/19 12:54:38;;;;;;;4.90;4.40;;;;;;;;;;5037455;28;20560;-85
2023/02/19 12:57:16;;;;;;;11.20;5.30;;;;;;;;;;5037236;28;20174;-81
2023/02/19 12:59:54;;;;;;;8.38;4.28;;;;;;;;;;5037082;28;20268;-81
2023/02/19 13:02:23;;;;;;;8.15;5.03;;;;;;;;;;5037399;28;20261;-80
2023/02/19 13:05:02;;;;;;;6.70;6.00;;;;;;;;;;5037847;28;20178;-80
2023/02/19 13:07:48;;;;;;;6.95;4.47;;;;;;;;;;5037366;28;20188;-81
2023/02/19 13:10:17;;;;;;;10.25;6.13;;;;;;;;;;5033298;28;20217;-80
2023/02/19 13:12:44;;;;;;;8.10;6.13;;;;;;;;;;5036565;28;20228;-81
2023/02/19 13:15:15;;;;;;;8.23;5.10;;;;;;;;;;5037572;28;20260;-80
2023/02/19 13:17:46;;;;;;;8.68;4.78;;;;;;;;;;5036250;28;20174;-80
2023/02/19 13:20:30;;;;;;;6.70;4.53;;;;;;;;;;5036116;28;20186;-80
2023/02/19 13:25:46;;;;;;;10.63;5.72;;;;;;;;;;5036852;28;20213;-79
2023/02/19 13:28:18;;;;;;;5.17;4.53;;;;;;;;;;5037213;28;20174;-80
2023/02/19 13:30:59;;;;;;;9.20;7.43;;;;;;;;;;5036925;28;20405;-80
2023/02/19 13:33:40;;;;;;;12.13;7.35;;;;;;;;;;5037349;28;20165;-80
2023/02/19 13:36:15;;;;;;;9.48;6.43;;;;;;;;;;5036927;28;20166;-80
2023/02/19 13:38:43;;;;;;;8.90;6.20;;;;;;;;;;5035363;28;20185;-80
2023/02/19 13:41:18;;;;;;;9.27;7.93;;;;;;;;;;5036744;28;20208;-80
2023/02/19 13:43:45;;;;;;;7.57;6.75;;;;;;;;;;5035929;28;20178;-80
2023/02/19 13:46:15;;;;;;;16.02;7.90;;;;;;;;;;5037137;28;20170;-80
2023/02/19 13:48:43;;;;;;;7.82;5.82;;;;;;;;;;5036386;28;20170;-80
2023/02/19 13:51:12;;;;;;;17.35;8.27;;;;;;;;;;5036919;28;20278;-80
2023/02/19 13:53:41;;;;;;;12.55;7.13;;;;;;;;;;5036590;28;20181;-80
2023/02/19 13:56:39;;;;;;;11.43;7.30;;;;;;;;;;5036904;28;20178;-81
2023/02/19 13:59:11;;;;;;;13.80;8.25;;;;;;;;;;5024819;28;20190;-81
2023/02/19 14:01:52;;;;;;;16.10;8.07;;;;;;;;;;5038614;28;20213;-80
2023/02/19 14:04:20;;;;;;;10.48;8.25;;;;;;;;;;5034387;28;20178;-81
2023/02/19 14:07:04;;;;;;;13.27;8.70;;;;;;;;;;5036181;28;20205;-80
2023/02/19 14:09:34;;;;;;;17.52;8.98;;;;;;;;;;5035753;28;20177;-81
2023/02/19 14:12:09;;;;;;;15.48;8.52;;;;;;;;;;5035456;28;20544;-80
2023/02/19 14:14:45;;;;;;;13.90;8.88;;;;;;;;;;5036566;28;20639;-81
2023/02/19 14:17:28;;;;;;;13.18;8.20;;;;;;;;;;5046209;28;20189;-81
2023/02/19 14:19:55;;;;;;;17.63;9.23;;;;;;;;;;5046721;28;20165;-81
2023/02/19 14:22:40;;;;;;;16.70;8.80;;;;;;;;;;5049852;28;20215;-81
2023/02/19 14:25:13;;;;;;;13.85;8.98;;;;;;;;;;5055495;28;20185;-80
2023/02/19 14:27:39;;;;;;;22.20;9.55;;;;;;;;;;5055361;28;20166;-81
2023/02/19 14:30:06;;;;;;;12.45;10.10;;;;;;;;;;5055413;28;20251;-80
2023/02/19 14:32:32;;;;;;;14.60;9.80;;;;;;;;;;5054769;28;20193;-81
2023/02/19 14:34:58;;;;;;;11.88;8.88;;;;;;;;;;5048028;28;20214;-81
2023/02/19 14:37:25;;;;;;;19.50;9.23;;;;;;;;;;5036940;28;20541;-81
2023/02/19 14:39:53;;;;;;;15.68;9.52;;;;;;;;;;5045068;28;20219;-80
2023/02/19 14:42:25;;;;;;;17.50;9.45;;;;;;;;;;5042287;28;20252;-81
2023/02/19 14:44:51;;;;;;;16.20;9.95;;;;;;;;;;5043522;28;20196;-81
2023/02/19 14:47:19;;;;;;;13.13;8.43;;;;;;;;;;5034921;28;20535;-81
2023/02/19 14:49:55;;;;;;;16.52;9.63;;;;;;;;;;5034920;28;20450;-81
2023/02/19 14:52:42;;;;;;;13.85;10.15;;;;;;;;;;5040930;28;20193;-81
2023/02/19 14:55:20;;;;;;;18.25;10.30;;;;;;;;;;5040156;28;20243;-81
2023/02/19 14:57:47;;;;;;;18.08;10.85;;;;;;;;;;5033156;28;20270;-82
2023/02/19 15:00:19;;;;;;;16.15;10.05;;;;;;;;;;5039380;28;20189;-81
2023/02/19 15:02:45;;;;;;;22.23;12.38;;;;;;;;;;5035941;28;20500;-81
2023/02/19 15:05:15;;;;;;;20.40;10.30;;;;;;;;;;5062330;28;20178;-81